createdAt,value
2017-10-04T00:00:13.786Z,8.52
2017-10-04T00:00:54.363Z,8.59
2017-10-04T00:01:34.947Z,8.59
2017-10-04T00:02:15.513Z,8.65
2017-10-04T00:02:56.091Z,8.48
2017-10-04T00:03:36.669Z,8.55
2017-10-04T00:04:17.247Z,8.48
2017-10-04T00:04:57.810Z,8.55
2017-10-04T00:05:38.379Z,8.55
2017-10-04T00:06:33.527Z,8.5
2017-10-04T00:07:14.105Z,8.61
2017-10-04T00:07:54.685Z,8.5
2017-10-04T00:08:35.262Z,8.53
2017-10-04T00:09:15.840Z,8.59
2017-10-04T00:09:56.434Z,8.59
2017-10-04T00:10:37.015Z,8.52
2017-10-04T00:11:17.589Z,8.47
2017-10-04T00:11:58.167Z,8.5
2017-10-04T00:12:38.741Z,8.43
2017-10-04T00:13:19.321Z,8.53
2017-10-04T00:13:59.900Z,8.43
2017-10-04T00:14:40.477Z,8.38
2017-10-04T00:15:21.046Z,8.34
2017-10-04T00:16:01.638Z,8.41
2017-10-04T00:16:42.212Z,8.44
2017-10-04T00:17:22.795Z,8.45
2017-10-04T00:18:03.364Z,8.41
2017-10-04T00:18:43.958Z,8.4
2017-10-04T00:19:24.512Z,8.4
2017-10-04T00:20:05.099Z,8.41
2017-10-04T00:20:45.679Z,8.38
2017-10-04T00:21:26.255Z,8.44
2017-10-04T00:22:06.827Z,8.41
2017-10-04T00:22:47.405Z,8.41
2017-10-04T00:23:27.987Z,8.38
2017-10-04T00:24:08.572Z,8.36
2017-10-04T00:24:49.154Z,8.4
2017-10-04T00:25:30.220Z,8.34
2017-10-04T00:26:10.804Z,8.36
2017-10-04T00:26:51.374Z,8.34
2017-10-04T00:27:31.952Z,8.3
2017-10-04T00:28:32.239Z,8.2
2017-10-04T00:29:12.822Z,8.2
2017-10-04T00:29:53.388Z,8.19
2017-10-04T00:30:33.957Z,8.08
2017-10-04T00:31:14.526Z,8.07
2017-10-04T00:31:55.100Z,8.05
2017-10-04T00:32:35.675Z,8.1
2017-10-04T00:33:16.249Z,8.07
2017-10-04T00:33:56.827Z,8.05
2017-10-04T00:34:37.397Z,8
2017-10-04T00:35:17.972Z,7.98
2017-10-04T00:35:58.546Z,7.97
2017-10-04T00:36:39.127Z,7.92
2017-10-04T00:37:19.698Z,8.02
2017-10-04T00:38:00.285Z,7.92
2017-10-04T00:38:40.870Z,7.86
2017-10-04T00:39:21.453Z,7.83
2017-10-04T00:40:02.033Z,7.87
2017-10-04T00:40:42.605Z,7.86
2017-10-04T00:41:23.182Z,7.83
2017-10-04T00:42:03.761Z,7.82
2017-10-04T00:42:44.333Z,7.79
2017-10-04T00:43:24.916Z,7.85
2017-10-04T00:44:05.495Z,7.79
2017-10-04T00:44:46.080Z,7.8
2017-10-04T00:45:26.659Z,7.82
2017-10-04T00:46:07.234Z,7.77
2017-10-04T00:46:47.804Z,7.75
2017-10-04T00:47:28.387Z,7.8
2017-10-04T00:48:08.959Z,7.82
2017-10-04T00:48:49.530Z,7.8
2017-10-04T00:49:30.114Z,7.75
2017-10-04T00:50:10.680Z,7.8
2017-10-04T00:50:51.263Z,7.79
2017-10-04T00:51:31.846Z,7.77
2017-10-04T00:52:12.422Z,7.79
2017-10-04T00:52:53.000Z,7.8
2017-10-04T00:53:33.578Z,7.8
2017-10-04T00:54:14.152Z,7.8
2017-10-04T00:54:54.729Z,7.82
2017-10-04T00:55:35.306Z,7.75
2017-10-04T00:56:15.876Z,7.72
2017-10-04T00:56:56.460Z,7.77
2017-10-04T00:57:37.038Z,7.75
2017-10-04T00:58:17.615Z,7.79
2017-10-04T00:58:58.190Z,7.75
2017-10-04T00:59:38.765Z,7.77
2017-10-04T01:00:19.333Z,7.71
2017-10-04T01:00:59.908Z,7.71
2017-10-04T01:01:40.493Z,7.75
2017-10-04T01:02:21.058Z,7.71
2017-10-04T01:03:01.636Z,7.72
2017-10-04T01:03:42.211Z,7.77
2017-10-04T01:04:22.785Z,7.72
2017-10-04T01:05:03.360Z,7.68
2017-10-04T01:05:43.928Z,7.77
2017-10-04T01:06:24.503Z,7.67
2017-10-04T01:07:05.082Z,7.68
2017-10-04T01:07:45.650Z,7.71
2017-10-04T01:08:26.233Z,7.69
2017-10-04T01:09:06.810Z,7.75
2017-10-04T01:09:47.383Z,7.57
2017-10-04T01:10:27.945Z,7.64
2017-10-04T01:11:08.517Z,7.67
2017-10-04T01:11:49.094Z,7.6
2017-10-04T01:12:29.668Z,7.68
2017-10-04T01:13:10.242Z,7.67
2017-10-04T01:13:50.823Z,7.69
2017-10-04T01:14:31.395Z,7.71
2017-10-04T01:15:11.965Z,7.72
2017-10-04T01:15:52.546Z,7.61
2017-10-04T01:16:33.124Z,7.67
2017-10-04T01:17:13.704Z,7.58
2017-10-04T01:17:54.275Z,7.63
2017-10-04T01:18:34.849Z,7.64
2017-10-04T01:19:15.426Z,7.68
2017-10-04T01:19:55.991Z,7.6
2017-10-04T01:20:36.556Z,7.61
2017-10-04T01:21:17.128Z,7.57
2017-10-04T01:21:57.708Z,7.6
2017-10-04T01:22:38.270Z,7.67
2017-10-04T01:23:18.855Z,7.58
2017-10-04T01:23:59.439Z,7.6
2017-10-04T01:24:40.023Z,7.68
2017-10-04T01:26:17.407Z,7.57
2017-10-04T01:26:57.976Z,7.74
2017-10-04T01:27:38.525Z,7.63
2017-10-04T01:28:19.097Z,7.6
2017-10-04T01:28:59.677Z,7.68
2017-10-04T01:29:40.265Z,7.71
2017-10-04T01:30:20.831Z,7.68
2017-10-04T01:31:01.410Z,7.68
2017-10-04T01:31:41.989Z,7.63
2017-10-04T01:32:22.562Z,7.58
2017-10-04T01:33:03.132Z,7.69
2017-10-04T01:33:43.698Z,7.72
2017-10-04T01:34:24.273Z,7.75
2017-10-04T01:35:04.854Z,7.72
2017-10-04T01:35:45.411Z,7.74
2017-10-04T01:36:25.987Z,7.69
2017-10-04T01:37:21.365Z,7.74
2017-10-04T01:38:01.942Z,7.72
2017-10-04T01:38:42.518Z,7.79
2017-10-04T01:39:23.083Z,7.8
2017-10-04T01:40:03.668Z,7.8
2017-10-04T01:40:44.238Z,7.74
2017-10-04T01:41:24.816Z,7.71
2017-10-04T01:42:05.373Z,7.75
2017-10-04T01:42:45.948Z,7.71
2017-10-04T01:43:26.533Z,7.69
2017-10-04T01:44:07.111Z,7.71
2017-10-04T01:44:47.685Z,7.79
2017-10-04T01:45:28.280Z,7.72
2017-10-04T01:46:08.852Z,7.75
2017-10-04T01:46:49.428Z,7.71
2017-10-04T01:47:30.008Z,7.75
2017-10-04T01:48:10.584Z,7.72
2017-10-04T01:48:51.164Z,7.68
2017-10-04T01:49:31.734Z,7.68
2017-10-04T01:51:24.376Z,7.67
2017-10-04T01:52:04.959Z,7.69
2017-10-04T01:52:45.533Z,7.6
2017-10-04T01:53:26.108Z,7.68
2017-10-04T01:54:06.699Z,7.64
2017-10-04T01:54:47.256Z,7.53
2017-10-04T01:55:27.839Z,7.57
2017-10-04T01:56:08.414Z,7.49
2017-10-04T01:56:48.992Z,7.48
2017-10-04T01:57:29.567Z,7.48
2017-10-04T01:58:10.142Z,7.43
2017-10-04T01:58:50.707Z,7.4
2017-10-04T01:59:31.270Z,7.46
2017-10-04T02:00:11.850Z,7.45
2017-10-04T02:00:52.435Z,7.34
2017-10-04T02:01:33.014Z,7.32
2017-10-04T02:02:13.592Z,7.3
2017-10-04T02:02:54.161Z,7.32
2017-10-04T02:03:34.730Z,7.28
2017-10-04T02:04:15.296Z,7.23
2017-10-04T02:04:55.875Z,7.21
2017-10-04T02:05:36.453Z,7.23
2017-10-04T02:06:17.035Z,7.16
2017-10-04T02:06:57.614Z,7.2
2017-10-04T02:07:38.190Z,7.24
2017-10-04T02:08:18.777Z,7.13
2017-10-04T02:08:59.355Z,7.07
2017-10-04T02:09:39.934Z,7.13
2017-10-04T02:10:20.510Z,7.17
2017-10-04T02:11:01.091Z,7.13
2017-10-04T02:11:41.675Z,7.1
2017-10-04T02:12:22.247Z,7.05
2017-10-04T02:13:02.824Z,7.15
2017-10-04T02:13:43.406Z,7.02
2017-10-04T02:14:23.985Z,7.1
2017-10-04T02:15:04.566Z,7.15
2017-10-04T02:15:45.140Z,7.15
2017-10-04T02:16:25.728Z,7.1
2017-10-04T02:17:06.308Z,7.17
2017-10-04T02:17:46.874Z,7.16
2017-10-04T02:18:27.467Z,7.06
2017-10-04T02:19:08.052Z,7.13
2017-10-04T02:19:48.628Z,7.07
2017-10-04T02:20:29.200Z,7.1
2017-10-04T02:21:09.772Z,7.15
2017-10-04T02:21:50.357Z,7.1
2017-10-04T02:22:30.941Z,7.1
2017-10-04T02:23:11.521Z,7.07
2017-10-04T02:23:52.104Z,6.97
2017-10-04T02:24:32.667Z,7.09
2017-10-04T02:25:13.262Z,7.05
2017-10-04T02:25:53.826Z,7.03
2017-10-04T02:26:34.408Z,7.05
2017-10-04T02:27:14.973Z,7.1
2017-10-04T02:27:55.551Z,7.03
2017-10-04T02:28:36.131Z,7.07
2017-10-04T02:29:16.706Z,7.1
2017-10-04T02:29:57.287Z,7.02
2017-10-04T02:30:37.870Z,7.03
2017-10-04T02:31:18.438Z,7.05
2017-10-04T02:31:59.022Z,6.92
2017-10-04T02:32:39.601Z,7.02
2017-10-04T02:33:20.177Z,7.03
2017-10-04T02:34:00.758Z,6.92
2017-10-04T02:34:41.338Z,6.92
2017-10-04T02:35:21.920Z,6.98
2017-10-04T02:36:02.502Z,6.92
2017-10-04T02:36:43.072Z,6.94
2017-10-04T02:37:23.657Z,6.89
2017-10-04T02:38:04.228Z,6.79
2017-10-04T02:38:44.802Z,6.8
2017-10-04T02:39:25.389Z,6.8
2017-10-04T02:40:05.962Z,6.79
2017-10-04T02:40:46.542Z,6.79
2017-10-04T02:41:27.112Z,6.66
2017-10-04T02:42:07.683Z,6.76
2017-10-04T02:42:48.260Z,6.77
2017-10-04T02:43:28.826Z,6.85
2017-10-04T02:44:09.400Z,6.8
2017-10-04T02:44:49.979Z,6.92
2017-10-04T02:45:30.557Z,6.92
2017-10-04T02:46:11.135Z,7.05
2017-10-04T02:46:51.721Z,6.95
2017-10-04T02:47:32.297Z,6.88
2017-10-04T02:48:12.872Z,6.79
2017-10-04T02:48:53.445Z,6.8
2017-10-04T02:49:34.026Z,6.76
2017-10-04T02:50:14.598Z,6.76
2017-10-04T02:50:55.177Z,6.71
2017-10-04T02:51:35.764Z,6.69
2017-10-04T02:52:16.334Z,6.71
2017-10-04T02:52:56.908Z,6.66
2017-10-04T02:53:37.487Z,6.66
2017-10-04T02:54:18.066Z,6.79
2017-10-04T02:54:58.629Z,6.79
2017-10-04T02:55:39.209Z,6.79
2017-10-04T02:56:19.789Z,6.81
2017-10-04T02:57:00.365Z,6.8
2017-10-04T02:57:40.941Z,6.67
2017-10-04T02:58:21.523Z,6.73
2017-10-04T02:59:02.105Z,6.64
2017-10-04T02:59:42.688Z,6.66
2017-10-04T03:00:23.263Z,6.64
2017-10-04T03:01:03.835Z,6.69
2017-10-04T03:01:44.415Z,6.7
2017-10-04T03:02:24.997Z,6.8
2017-10-04T03:03:05.582Z,6.69
2017-10-04T03:03:46.153Z,6.7
2017-10-04T03:04:26.729Z,6.62
2017-10-04T03:05:07.313Z,6.74
2017-10-04T03:05:47.890Z,6.66
2017-10-04T03:06:41.180Z,6.64
2017-10-04T03:07:21.775Z,6.58
2017-10-04T03:08:02.337Z,6.54
2017-10-04T03:08:42.909Z,6.46
2017-10-04T03:09:23.475Z,6.51
2017-10-04T03:10:04.042Z,6.41
2017-10-04T03:10:44.614Z,6.41
2017-10-04T03:11:25.184Z,6.37
2017-10-04T03:12:05.760Z,6.41
2017-10-04T03:12:46.341Z,6.41
2017-10-04T03:13:26.928Z,6.37
2017-10-04T03:14:22.241Z,6.38
2017-10-04T03:15:02.821Z,6.38
2017-10-04T03:15:43.451Z,6.34
2017-10-04T03:16:24.115Z,6.38
2017-10-04T03:17:04.695Z,6.4
2017-10-04T03:17:45.278Z,6.37
2017-10-04T03:18:25.847Z,6.28
2017-10-04T03:19:06.411Z,6.37
2017-10-04T03:19:46.990Z,6.3
2017-10-04T03:20:27.569Z,6.36
2017-10-04T03:21:08.148Z,6.34
2017-10-04T03:21:48.734Z,6.33
2017-10-04T03:22:29.313Z,6.31
2017-10-04T03:23:09.888Z,6.31
2017-10-04T03:23:50.468Z,6.36
2017-10-04T03:24:31.045Z,6.34
2017-10-04T03:25:26.344Z,6.28
2017-10-04T03:26:06.912Z,6.37
2017-10-04T03:26:47.492Z,6.27
2017-10-04T03:27:28.062Z,6.38
2017-10-04T03:28:08.632Z,6.4
2017-10-04T03:28:49.208Z,6.46
2017-10-04T03:29:29.771Z,6.4
2017-10-04T03:30:10.348Z,6.4
2017-10-04T03:30:50.910Z,6.41
2017-10-04T03:31:31.478Z,6.52
2017-10-04T03:32:12.049Z,6.41
2017-10-04T03:32:52.616Z,6.44
2017-10-04T03:33:33.187Z,6.55
2017-10-04T03:34:13.784Z,6.4
2017-10-04T03:34:54.345Z,6.55
2017-10-04T03:35:34.918Z,6.46
2017-10-04T03:36:15.475Z,6.52
2017-10-04T03:36:56.068Z,6.44
2017-10-04T03:37:36.663Z,6.41
2017-10-04T03:38:17.222Z,6.43
2017-10-04T03:38:57.787Z,6.41
2017-10-04T03:39:38.380Z,6.41
2017-10-04T03:40:18.961Z,6.4
2017-10-04T03:40:59.522Z,6.43
2017-10-04T03:41:40.114Z,6.38
2017-10-04T03:42:20.692Z,6.4
2017-10-04T03:44:18.427Z,6.44
2017-10-04T03:44:59.005Z,6.52
2017-10-04T03:45:39.577Z,6.51
2017-10-04T03:46:20.136Z,6.43
2017-10-04T03:47:00.733Z,6.46
2017-10-04T03:47:41.299Z,6.46
2017-10-04T03:48:21.867Z,6.34
2017-10-04T03:49:02.424Z,6.33
2017-10-04T03:49:42.988Z,6.28
2017-10-04T03:50:23.563Z,6.25
2017-10-04T03:51:04.121Z,6.22
2017-10-04T03:51:44.699Z,6.31
2017-10-04T03:52:25.263Z,6.19
2017-10-04T03:53:05.843Z,6.3
2017-10-04T03:54:01.400Z,6.27
2017-10-04T03:54:41.983Z,6.28
2017-10-04T03:55:22.552Z,6.27
2017-10-04T03:56:03.126Z,6.22
2017-10-04T03:57:40.494Z,6.28
2017-10-04T03:58:21.071Z,6.27
2017-10-04T03:59:01.644Z,6.25
2017-10-04T03:59:42.228Z,6.33
2017-10-04T04:00:22.802Z,6.28
2017-10-04T04:01:03.378Z,6.3
2017-10-04T04:01:43.964Z,6.22
2017-10-04T04:02:24.538Z,6.14
2017-10-04T04:03:05.117Z,6.08
2017-10-04T04:03:45.686Z,6.11
2017-10-04T04:04:26.251Z,6.12
2017-10-04T04:05:06.821Z,6.08
2017-10-04T04:05:47.404Z,6.11
2017-10-04T04:06:42.758Z,6.09
2017-10-04T04:07:23.341Z,6.11
2017-10-04T04:08:03.910Z,6.12
2017-10-04T04:08:44.489Z,6.17
2017-10-04T04:09:25.074Z,6.21
2017-10-04T04:10:05.644Z,6.22
2017-10-04T04:10:46.203Z,6.33
2017-10-04T04:11:26.779Z,6.25
2017-10-04T04:12:07.365Z,6.18
2017-10-04T04:12:47.944Z,6.21
2017-10-04T04:13:28.512Z,6.12
2017-10-04T04:14:09.093Z,6.15
2017-10-04T04:14:49.677Z,6.15
2017-10-04T04:15:30.257Z,6.11
2017-10-04T04:16:10.838Z,6.09
2017-10-04T04:16:51.421Z,6.08
2017-10-04T04:17:31.995Z,6.08
2017-10-04T04:18:12.567Z,6.08
2017-10-04T04:18:53.147Z,6.09
2017-10-04T04:19:33.719Z,6.12
2017-10-04T04:20:14.298Z,6.18
2017-10-04T04:20:54.864Z,6.09
2017-10-04T04:21:35.433Z,6.11
2017-10-04T04:22:16.012Z,6.09
2017-10-04T04:22:56.588Z,6.14
2017-10-04T04:23:37.165Z,6.11
2017-10-04T04:24:17.740Z,6.15
2017-10-04T04:24:58.319Z,6.21
2017-10-04T04:25:38.902Z,6.19
2017-10-04T04:26:19.477Z,6.17
2017-10-04T04:27:00.056Z,6.21
2017-10-04T04:27:40.635Z,6.27
2017-10-04T04:28:21.216Z,6.21
2017-10-04T04:29:01.793Z,6.28
2017-10-04T04:29:42.372Z,6.31
2017-10-04T04:30:22.957Z,6.31
2017-10-04T04:31:03.536Z,6.37
2017-10-04T04:31:44.118Z,6.31
2017-10-04T04:32:24.689Z,6.33
2017-10-04T04:33:05.276Z,6.34
2017-10-04T04:33:45.855Z,6.38
2017-10-04T04:34:26.432Z,6.34
2017-10-04T04:35:07.008Z,6.31
2017-10-04T04:35:47.596Z,6.3
2017-10-04T04:36:28.169Z,6.31
2017-10-04T04:37:08.737Z,6.28
2017-10-04T04:37:49.313Z,6.31
2017-10-04T04:38:29.898Z,6.28
2017-10-04T04:39:10.469Z,6.31
2017-10-04T04:39:51.045Z,6.38
2017-10-04T04:40:31.635Z,6.33
2017-10-04T04:41:12.216Z,6.38
2017-10-04T04:41:52.783Z,6.37
2017-10-04T04:42:33.365Z,6.36
2017-10-04T04:43:13.948Z,6.3
2017-10-04T04:43:54.525Z,6.28
2017-10-04T04:44:35.101Z,6.21
2017-10-04T04:45:15.677Z,6.22
2017-10-04T04:45:56.250Z,6.34
2017-10-04T04:46:36.821Z,6.31
2017-10-04T04:47:17.396Z,6.19
2017-10-04T04:47:57.977Z,6.22
2017-10-04T04:48:38.549Z,6.3
2017-10-04T04:49:19.124Z,6.31
2017-10-04T04:49:59.707Z,6.25
2017-10-04T04:50:40.290Z,6.21
2017-10-04T04:51:20.863Z,6.14
2017-10-04T04:52:01.437Z,6.08
2017-10-04T04:52:42.015Z,6.11
2017-10-04T04:53:22.595Z,6.08
2017-10-04T04:54:03.166Z,6.08
2017-10-04T04:54:43.737Z,6.04
2017-10-04T04:55:24.310Z,6.03
2017-10-04T04:56:04.886Z,6.03
2017-10-04T04:56:45.455Z,6.03
2017-10-04T04:57:26.040Z,6
2017-10-04T04:58:06.620Z,6.01
2017-10-04T04:58:47.191Z,6.01
2017-10-04T04:59:27.777Z,5.99
2017-10-04T05:00:08.350Z,5.99
2017-10-04T05:00:48.929Z,5.97
2017-10-04T05:01:29.511Z,6
2017-10-04T05:02:10.084Z,6
2017-10-04T05:02:50.665Z,6
2017-10-04T05:03:31.246Z,6.04
2017-10-04T05:04:11.830Z,6.03
2017-10-04T05:04:52.414Z,5.94
2017-10-04T05:05:32.986Z,6
2017-10-04T05:06:13.564Z,6.01
2017-10-04T05:06:54.142Z,6
2017-10-04T05:07:34.709Z,5.96
2017-10-04T05:08:15.283Z,6.03
2017-10-04T05:08:55.863Z,6.06
2017-10-04T05:09:36.445Z,6.09
2017-10-04T05:10:17.023Z,5.94
2017-10-04T05:10:57.601Z,6.01
2017-10-04T05:11:38.182Z,5.99
2017-10-04T05:12:18.754Z,5.97
2017-10-04T05:12:59.326Z,5.94
2017-10-04T05:13:39.905Z,5.91
2017-10-04T05:14:20.486Z,6
2017-10-04T05:15:01.060Z,5.96
2017-10-04T05:15:41.638Z,5.99
2017-10-04T05:16:22.201Z,5.97
2017-10-04T05:17:02.785Z,5.91
2017-10-04T05:17:43.356Z,5.96
2017-10-04T05:18:23.936Z,5.94
2017-10-04T05:19:04.507Z,5.93
2017-10-04T05:19:45.085Z,5.99
2017-10-04T05:20:25.654Z,5.96
2017-10-04T05:21:06.234Z,5.96
2017-10-04T05:21:46.808Z,5.96
2017-10-04T05:22:27.376Z,6
2017-10-04T05:23:07.949Z,5.94
2017-10-04T05:23:48.525Z,5.94
2017-10-04T05:24:29.099Z,5.99
2017-10-04T05:25:09.665Z,5.99
2017-10-04T05:25:50.244Z,5.86
2017-10-04T05:26:30.827Z,5.85
2017-10-04T05:27:11.416Z,5.9
2017-10-04T05:28:06.777Z,5.89
2017-10-04T05:28:47.342Z,5.89
2017-10-04T05:29:27.922Z,5.81
2017-10-04T05:30:08.498Z,5.83
2017-10-04T05:30:49.081Z,5.85
2017-10-04T05:31:29.658Z,5.89
2017-10-04T05:32:10.239Z,5.91
2017-10-04T05:32:50.817Z,5.82
2017-10-04T05:33:31.401Z,5.91
2017-10-04T05:34:11.980Z,5.89
2017-10-04T05:34:52.543Z,5.94
2017-10-04T05:35:33.130Z,6
2017-10-04T05:36:13.705Z,5.94
2017-10-04T05:36:54.294Z,5.96
2017-10-04T05:37:34.870Z,5.97
2017-10-04T05:38:15.450Z,6.03
2017-10-04T05:38:56.030Z,6.08
2017-10-04T05:39:36.613Z,6.17
2017-10-04T05:40:17.189Z,6.27
2017-10-04T05:40:57.795Z,6.33
2017-10-04T05:42:55.525Z,6.41
2017-10-04T05:43:36.101Z,6.43
2017-10-04T05:44:16.691Z,6.49
2017-10-04T05:44:57.272Z,6.54
2017-10-04T05:45:37.851Z,6.56
2017-10-04T05:46:18.413Z,6.59
2017-10-04T05:46:59.009Z,6.66
2017-10-04T05:47:39.572Z,6.67
2017-10-04T05:48:20.150Z,6.66
2017-10-04T05:49:00.719Z,6.76
2017-10-04T05:49:41.305Z,6.8
2017-10-04T05:50:21.883Z,6.84
2017-10-04T05:52:19.524Z,6.92
2017-10-04T05:53:00.106Z,6.94
2017-10-04T05:53:40.690Z,6.89
2017-10-04T05:54:21.272Z,7.05
2017-10-04T05:55:01.852Z,7.05
2017-10-04T05:55:42.416Z,7.09
2017-10-04T05:56:22.979Z,7.05
2017-10-04T05:57:03.548Z,7.16
2017-10-04T05:57:44.076Z,7.15
2017-10-04T05:58:24.630Z,7.23
2017-10-04T05:59:05.204Z,7.24
2017-10-04T05:59:45.765Z,7.34
2017-10-04T06:00:26.320Z,7.4
2017-10-04T06:01:06.897Z,7.42
2017-10-04T06:01:47.474Z,7.48
2017-10-04T06:02:43.763Z,7.61
2017-10-04T06:03:24.341Z,7.57
2017-10-04T06:04:04.917Z,7.57
2017-10-04T06:04:45.464Z,7.48
2017-10-04T06:05:26.045Z,7.45
2017-10-04T06:06:06.605Z,7.57
2017-10-04T06:06:47.198Z,7.61
2017-10-04T06:07:27.766Z,7.6
2017-10-04T06:08:08.329Z,7.63
2017-10-04T06:08:48.892Z,7.69
2017-10-04T06:09:29.473Z,7.72
2017-10-04T06:10:10.075Z,7.64
2017-10-04T06:10:50.632Z,7.72
2017-10-04T06:11:31.205Z,7.71
2017-10-04T06:12:11.771Z,7.82
2017-10-04T06:12:52.333Z,7.82
2017-10-04T06:13:32.916Z,7.85
2017-10-04T06:14:13.476Z,7.85
2017-10-04T06:14:54.053Z,7.89
2017-10-04T06:15:34.629Z,7.87
2017-10-04T06:16:15.201Z,7.86
2017-10-04T06:16:55.778Z,7.86
2017-10-04T06:17:36.355Z,7.83
2017-10-04T06:18:16.920Z,7.83
2017-10-04T06:18:57.487Z,7.8
2017-10-04T06:19:38.063Z,7.83
2017-10-04T06:20:18.636Z,7.85
2017-10-04T06:20:59.216Z,7.77
2017-10-04T06:21:39.784Z,7.79
2017-10-04T06:22:20.374Z,7.83
2017-10-04T06:23:00.896Z,7.77
2017-10-04T06:23:41.476Z,7.8
2017-10-04T06:24:22.033Z,7.83
2017-10-04T06:25:02.551Z,7.86
2017-10-04T06:25:43.118Z,7.83
2017-10-04T06:26:23.668Z,7.95
2017-10-04T06:27:04.228Z,8.01
2017-10-04T06:27:44.793Z,8.04
2017-10-04T06:28:25.347Z,8.08
2017-10-04T06:29:05.925Z,8.11
2017-10-04T06:30:58.513Z,8.41
2017-10-04T06:31:39.082Z,8.4
2017-10-04T06:32:19.652Z,8.45
2017-10-04T06:33:00.235Z,8.55
2017-10-04T06:33:40.813Z,8.61
2017-10-04T06:34:21.382Z,8.61
2017-10-04T06:35:01.957Z,8.71
2017-10-04T06:35:42.536Z,8.76
2017-10-04T06:36:23.095Z,8.73
2017-10-04T06:37:03.674Z,8.81
2017-10-04T06:37:44.266Z,8.86
2017-10-04T06:38:31.820Z,8.83
2017-10-04T06:39:12.394Z,8.84
2017-10-04T06:39:52.932Z,8.83
2017-10-04T06:40:33.484Z,9.01
2017-10-04T06:41:14.050Z,9.2
2017-10-04T06:41:54.622Z,9.21
2017-10-04T06:42:35.189Z,9.33
2017-10-04T06:43:15.779Z,9.38
2017-10-04T06:43:56.305Z,9.42
2017-10-04T06:44:36.867Z,9.48
2017-10-04T06:45:17.456Z,9.65
2017-10-04T06:45:57.994Z,9.76
2017-10-04T06:46:38.579Z,10.01
2017-10-04T06:47:19.123Z,10.22
2017-10-04T06:47:59.688Z,10.55
2017-10-04T06:48:40.275Z,11.04
2017-10-04T06:49:20.854Z,11.83
2017-10-04T06:50:01.414Z,12.92
2017-10-04T06:50:41.980Z,14.03
2017-10-04T06:51:22.538Z,14.96
2017-10-04T06:52:03.083Z,15.93
2017-10-04T06:52:43.653Z,16.76
2017-10-04T06:53:24.207Z,17.81
2017-10-04T06:54:04.785Z,18.44
2017-10-04T06:54:45.346Z,19.25
2017-10-04T06:55:25.901Z,19.8
2017-10-04T06:56:06.467Z,20.38
2017-10-04T06:56:47.025Z,20.79
2017-10-04T06:57:27.578Z,21.04
2017-10-04T06:58:08.277Z,21.16
2017-10-04T06:58:48.858Z,21.22
2017-10-04T06:59:29.424Z,21.07
2017-10-04T07:00:09.993Z,21.17
2017-10-04T07:00:50.568Z,21.04
2017-10-04T07:01:31.108Z,20.99
2017-10-04T07:02:11.709Z,21.19
2017-10-04T07:02:52.251Z,21.29
2017-10-04T07:03:32.833Z,21.42
2017-10-04T07:04:13.425Z,21.54
2017-10-04T07:04:54.003Z,21.65
2017-10-04T07:05:34.585Z,21.68
2017-10-04T07:06:15.163Z,21.71
2017-10-04T07:06:55.753Z,21.59
2017-10-04T07:07:36.314Z,21.67
2017-10-04T07:08:16.897Z,21.62
2017-10-04T07:08:57.476Z,21.72
2017-10-04T07:09:38.068Z,21.68
2017-10-04T07:10:18.622Z,21.99
2017-10-04T07:10:59.205Z,22.15
2017-10-04T07:12:36.577Z,21.69
2017-10-04T07:13:17.160Z,21.71
2017-10-04T07:13:57.743Z,21.74
2017-10-04T07:14:38.311Z,22.27
2017-10-04T07:15:18.903Z,22.28
2017-10-04T07:15:59.492Z,22.39
2017-10-04T07:16:40.076Z,22.37
2017-10-04T07:17:20.650Z,22.07
2017-10-04T07:18:01.237Z,21.99
2017-10-04T07:18:41.822Z,21.9
2017-10-04T07:19:22.402Z,21.79
2017-10-04T07:20:02.992Z,21.59
2017-10-04T07:20:43.572Z,21.07
2017-10-04T07:21:24.164Z,20.91
2017-10-04T07:22:04.750Z,20.61
2017-10-04T07:22:45.306Z,20.18
2017-10-04T07:23:25.893Z,19.66
2017-10-04T07:24:06.473Z,18.87
2017-10-04T07:24:47.053Z,18.33
2017-10-04T07:25:27.652Z,18.39
2017-10-04T07:26:08.230Z,18.41
2017-10-04T07:26:48.808Z,18.52
2017-10-04T07:27:29.395Z,18.76
2017-10-04T07:28:09.977Z,18.87
2017-10-04T07:28:50.569Z,19.02
2017-10-04T07:29:31.156Z,19.04
2017-10-04T07:30:12.661Z,19.04
2017-10-04T07:30:53.245Z,18.98
2017-10-04T07:31:33.839Z,18.85
2017-10-04T07:32:14.424Z,18.65
2017-10-04T07:32:55.005Z,18.98
2017-10-04T07:33:46.399Z,19.28
2017-10-04T07:34:26.987Z,19.91
2017-10-04T07:35:07.556Z,20.29
2017-10-04T07:35:48.144Z,20.58
2017-10-04T07:36:28.731Z,20.66
2017-10-04T07:37:09.309Z,20.79
2017-10-04T07:37:49.891Z,21.13
2017-10-04T07:38:30.471Z,21.22
2017-10-04T07:39:11.060Z,21.42
2017-10-04T07:39:51.641Z,21.27
2017-10-04T07:40:32.221Z,20.61
2017-10-04T07:41:12.817Z,19.65
2017-10-04T07:41:53.402Z,19.07
2017-10-04T07:42:33.985Z,18.55
2017-10-04T07:43:14.573Z,18.35
2017-10-04T07:43:55.162Z,18.35
2017-10-04T07:44:35.733Z,18.36
2017-10-04T07:45:16.326Z,18.25
2017-10-04T07:45:56.908Z,18.05
2017-10-04T07:46:37.494Z,17.89
2017-10-04T07:47:18.081Z,17.82
2017-10-04T07:47:58.667Z,17.75
2017-10-04T07:48:39.246Z,17.79
2017-10-04T07:49:19.832Z,17.84
2017-10-04T07:50:00.416Z,17.79
2017-10-04T07:50:40.995Z,17.54
2017-10-04T07:51:21.578Z,17.04
2017-10-04T07:52:02.163Z,16.82
2017-10-04T07:52:42.767Z,16.66
2017-10-04T07:53:23.345Z,16.91
2017-10-04T07:54:03.930Z,17.04
2017-10-04T07:54:45.351Z,17.14
2017-10-04T07:55:25.929Z,17.26
2017-10-04T07:56:06.516Z,17.19
2017-10-04T07:56:47.101Z,17.06
2017-10-04T07:57:27.690Z,17
2017-10-04T07:58:08.281Z,16.88
2017-10-04T07:58:48.859Z,16.81
2017-10-04T08:00:46.620Z,16.43
2017-10-04T08:01:27.168Z,16.2
2017-10-04T08:02:07.745Z,16.33
2017-10-04T08:02:48.326Z,16.57
2017-10-04T08:03:28.919Z,16.63
2017-10-04T08:04:09.495Z,16.57
2017-10-04T08:04:50.064Z,16.42
2017-10-04T08:05:30.651Z,16.27
2017-10-04T08:06:11.225Z,16.11
2017-10-04T08:06:51.802Z,16.01
2017-10-04T08:07:32.377Z,15.9
2017-10-04T08:08:12.957Z,15.69
2017-10-04T08:08:53.525Z,15.69
2017-10-04T08:09:34.108Z,15.83
2017-10-04T08:10:14.693Z,15.96
2017-10-04T08:10:55.267Z,16.23
2017-10-04T08:11:35.852Z,16.31
2017-10-04T08:12:16.435Z,16.15
2017-10-04T08:12:57.008Z,16.31
2017-10-04T08:13:37.572Z,16.33
2017-10-04T08:14:18.153Z,16.49
2017-10-04T08:16:05.695Z,16.83
2017-10-04T08:16:46.270Z,16.93
2017-10-04T08:17:26.854Z,16.89
2017-10-04T08:18:07.439Z,16.83
2017-10-04T08:18:48.026Z,16.78
2017-10-04T08:19:28.603Z,17.06
2017-10-04T08:20:09.186Z,17.34
2017-10-04T08:20:49.765Z,17.63
2017-10-04T08:21:30.351Z,17.56
2017-10-04T08:22:10.930Z,17.54
2017-10-04T08:22:51.509Z,17.54
2017-10-04T08:23:32.084Z,17.63
2017-10-04T08:24:12.664Z,17.87
2017-10-04T08:24:53.248Z,17.81
2017-10-04T08:25:33.829Z,18.03
2017-10-04T08:26:14.413Z,18.42
2017-10-04T08:26:54.998Z,18.87
2017-10-04T08:27:35.579Z,19.18
2017-10-04T08:28:16.162Z,19.23
2017-10-04T08:28:56.734Z,19.41
2017-10-04T08:29:37.315Z,19.21
2017-10-04T08:31:14.693Z,18.94
2017-10-04T08:31:55.273Z,18.7
2017-10-04T08:32:35.859Z,18.75
2017-10-04T08:33:16.453Z,18.87
2017-10-04T08:33:57.027Z,18.57
2017-10-04T08:34:37.616Z,18.2
2017-10-04T08:35:18.193Z,18.14
2017-10-04T08:35:58.785Z,18.12
2017-10-04T08:36:39.354Z,18.14
2017-10-04T08:37:19.929Z,17.89
2017-10-04T08:38:00.499Z,18.03
2017-10-04T08:38:41.084Z,17.99
2017-10-04T08:39:21.658Z,18
2017-10-04T08:40:02.254Z,18.18
2017-10-04T08:40:42.835Z,18.21
2017-10-04T08:41:23.415Z,18.15
2017-10-04T08:42:03.989Z,17.9
2017-10-04T08:43:51.519Z,17.58
2017-10-04T08:44:32.105Z,17.74
2017-10-04T08:45:12.690Z,18.11
2017-10-04T08:45:53.270Z,18.47
2017-10-04T08:46:33.849Z,18.98
2017-10-04T08:47:14.438Z,19.39
2017-10-04T08:47:55.016Z,19.98
2017-10-04T08:48:35.592Z,20.23
2017-10-04T08:49:16.180Z,20.05
2017-10-04T08:49:56.763Z,19.99
2017-10-04T08:50:37.345Z,20.29
2017-10-04T08:51:17.921Z,20.13
2017-10-04T08:51:58.497Z,20.38
2017-10-04T08:52:39.080Z,20.26
2017-10-04T08:53:20.281Z,20.77
2017-10-04T08:54:00.839Z,21.12
2017-10-04T08:54:41.420Z,21.54
2017-10-04T08:55:22.013Z,21.64
2017-10-04T08:56:02.593Z,21.77
2017-10-04T08:56:43.164Z,21.75
2017-10-04T08:57:23.752Z,22.4
2017-10-04T08:58:04.322Z,22.65
2017-10-04T08:58:44.898Z,22.98
2017-10-04T08:59:25.470Z,22.62
2017-10-04T09:00:06.061Z,22.4
2017-10-04T09:00:46.644Z,22.46
2017-10-04T09:01:27.225Z,22.3
2017-10-04T09:02:07.812Z,22.21
2017-10-04T09:02:48.400Z,21.69
2017-10-04T09:03:28.982Z,21.17
2017-10-04T09:04:09.569Z,21.16
2017-10-04T09:04:50.158Z,21.32
2017-10-04T09:05:30.734Z,21.64
2017-10-04T09:06:11.325Z,22.21
2017-10-04T09:07:48.728Z,23.91
2017-10-04T09:08:29.311Z,24.25
2017-10-04T09:09:09.895Z,24.52
2017-10-04T09:09:50.478Z,24.88
2017-10-04T09:10:31.060Z,25.62
2017-10-04T09:11:11.651Z,26.06
2017-10-04T09:11:52.241Z,25.98
2017-10-04T09:12:32.844Z,25.75
2017-10-04T09:13:13.433Z,25.52
2017-10-04T09:13:54.018Z,25.69
2017-10-04T09:14:34.602Z,25.36
2017-10-04T09:15:15.191Z,24.84